Time;durP1;ratioP1;P1;durP2;ratioP2;P2;SDS_P1;SDS_P2;PMS_P1;PMS_P2;Temp;Humidity;BMP_temperature;BMP_pressure;BME280_temperature;BME280_humidity;BME280_pressure;Samples;Min_cycle;Max_cycle;Signal;HPM_P1;HPM_P2
2022/06/01 00:01:48;;;;;;;4.97;2.30;;;;;;;;;;4940040;29;20090;-72
2022/06/01 00:04:15;;;;;;;4.22;2.15;;;;;;;;;;4939952;29;20047;-72
2022/06/01 00:06:41;;;;;;;3.97;2.28;;;;;;;;;;4939643;29;20048;-72
2022/06/01 00:09:08;;;;;;;6.28;2.20;;;;;;;;;;4939500;29;20052;-72
2022/06/01 00:11:34;;;;;;;2.60;2.00;;;;;;;;;;4939468;29;20075;-72
2022/06/01 00:14:00;;;;;;;3.38;2.13;;;;;;;;;;4939787;29;20103;-72
2022/06/01 00:16:26;;;;;;;4.97;2.30;;;;;;;;;;4939727;29;20086;-72
2022/06/01 00:18:52;;;;;;;4.93;2.10;;;;;;;;;;4939783;29;20058;-72
2022/06/01 00:21:18;;;;;;;2.80;2.17;;;;;;;;;;4938543;29;20043;-72
2022/06/01 00:23:45;;;;;;;4.15;2.03;;;;;;;;;;4939489;29;20047;-72
2022/06/01 00:26:11;;;;;;;5.03;2.22;;;;;;;;;;4939322;29;20043;-72
2022/06/01 00:28:37;;;;;;;3.28;2.25;;;;;;;;;;4939256;29;20050;-72
2022/06/01 00:31:03;;;;;;;2.58;2.00;;;;;;;;;;4939168;29;20439;-72
2022/06/01 00:33:30;;;;;;;4.82;2.38;;;;;;;;;;4939362;29;20071;-72
2022/06/01 00:35:56;;;;;;;6.55;2.28;;;;;;;;;;4939941;29;20095;-72
2022/06/01 00:38:22;;;;;;;4.30;2.10;;;;;;;;;;4938803;29;20087;-72
2022/06/01 00:40:49;;;;;;;3.13;2.25;;;;;;;;;;4939024;29;20043;-72
2022/06/01 00:43:26;;;;;;;3.33;2.15;;;;;;;;;;4939026;29;20050;-72
2022/06/01 00:45:52;;;;;;;5.18;2.20;;;;;;;;;;4939200;29;20518;-72
2022/06/01 00:48:22;;;;;;;5.32;1.92;;;;;;;;;;4939215;29;20044;-72
2022/06/01 00:50:48;;;;;;;2.45;2.17;;;;;;;;;;4921716;29;20395;-72
2022/06/01 00:53:20;;;;;;;4.47;2.10;;;;;;;;;;4938568;29;20035;-72
2022/06/01 00:55:51;;;;;;;2.28;1.90;;;;;;;;;;4938471;29;20054;-72
2022/06/01 00:58:19;;;;;;;5.80;2.15;;;;;;;;;;4938110;29;20091;-72
2022/06/01 01:00:46;;;;;;;2.20;2.10;;;;;;;;;;4938625;29;20043;-72
2022/06/01 01:03:12;;;;;;;4.97;2.30;;;;;;;;;;4938238;29;20047;-72
2022/06/01 01:05:44;;;;;;;6.20;2.40;;;;;;;;;;4939086;29;20051;-72
2022/06/01 01:08:10;;;;;;;3.25;1.90;;;;;;;;;;4937884;29;20122;-72
2022/06/01 01:10:36;;;;;;;6.82;2.10;;;;;;;;;;4938460;29;20047;-72
2022/06/01 01:13:05;;;;;;;3.05;2.13;;;;;;;;;;4938590;29;20043;-72
2022/06/01 01:15:36;;;;;;;4.82;2.53;;;;;;;;;;4938400;29;20051;-72
2022/06/01 01:18:06;;;;;;;5.40;2.33;;;;;;;;;;4938780;29;20126;-72
2022/06/01 01:20:33;;;;;;;6.28;2.00;;;;;;;;;;4938405;29;20050;-72
2022/06/01 01:23:07;;;;;;;4.43;2.08;;;;;;;;;;4938327;29;20134;-72
2022/06/01 01:25:34;;;;;;;3.03;2.20;;;;;;;;;;4938120;29;20130;-72
2022/06/01 01:28:01;;;;;;;4.55;2.22;;;;;;;;;;4938303;29;20503;-72
2022/06/01 01:30:27;;;;;;;3.65;2.35;;;;;;;;;;4938362;29;20046;-72
2022/06/01 01:32:53;;;;;;;3.58;2.50;;;;;;;;;;4938024;29;20533;-72
2022/06/01 01:35:20;;;;;;;3.35;2.40;;;;;;;;;;4938309;29;20475;-72
2022/06/01 01:37:48;;;;;;;3.13;2.50;;;;;;;;;;4938170;29;20164;-72
2022/06/01 01:40:14;;;;;;;4.45;2.60;;;;;;;;;;4938569;29;20042;-72
2022/06/01 01:42:40;;;;;;;4.32;2.75;;;;;;;;;;4938114;29;20058;-72
2022/06/01 01:45:26;;;;;;;4.45;2.42;;;;;;;;;;4937890;29;20040;-72
2022/06/01 01:47:53;;;;;;;5.60;2.28;;;;;;;;;;4938641;29;20051;-72
2022/06/01 01:50:20;;;;;;;3.65;2.20;;;;;;;;;;4937795;29;20522;-72
2022/06/01 01:52:46;;;;;;;4.93;2.30;;;;;;;;;;4938110;29;20040;-72
2022/06/01 01:55:20;;;;;;;3.47;2.10;;;;;;;;;;4937984;29;20145;-72
2022/06/01 01:58:21;;;;;;;4.68;2.60;;;;;;;;;;4937615;29;20039;-72
2022/06/01 02:00:51;;;;;;;4.47;2.40;;;;;;;;;;4916426;29;20063;-72
2022/06/01 02:03:23;;;;;;;2.38;2.17;;;;;;;;;;4933516;29;20048;-72
2022/06/01 02:06:04;;;;;;;4.57;2.42;;;;;;;;;;4937843;29;20054;-72
2022/06/01 02:08:39;;;;;;;3.30;2.30;;;;;;;;;;4937635;29;20048;-72
2022/06/01 02:14:11;;;;;;;3.90;2.25;;;;;;;;;;4937258;29;20043;-72
2022/06/01 02:16:39;;;;;;;3.20;2.60;;;;;;;;;;4937423;29;20040;-72
2022/06/01 02:19:12;;;;;;;7.50;2.55;;;;;;;;;;4937832;29;20131;-72
2022/06/01 02:21:38;;;;;;;2.83;2.47;;;;;;;;;;4937674;29;20050;-72
2022/06/01 02:24:05;;;;;;;3.10;2.50;;;;;;;;;;4937078;29;20444;-72
2022/06/01 02:26:31;;;;;;;5.82;2.58;;;;;;;;;;4938148;29;20047;-72
2022/06/01 02:29:02;;;;;;;3.00;2.33;;;;;;;;;;4937745;29;20102;-72
2022/06/01 02:31:29;;;;;;;4.97;2.60;;;;;;;;;;4937560;29;20051;-72
2022/06/01 02:33:56;;;;;;;4.28;2.60;;;;;;;;;;4937667;29;20048;-72
2022/06/01 02:36:23;;;;;;;3.58;2.47;;;;;;;;;;4937548;29;20040;-72
2022/06/01 02:38:52;;;;;;;2.88;2.40;;;;;;;;;;4936753;29;20064;-72
2022/06/01 02:44:02;;;;;;;5.25;2.65;;;;;;;;;;4939027;29;20103;-72
2022/06/01 02:46:29;;;;;;;6.90;2.63;;;;;;;;;;4941326;29;20044;-72
2022/06/01 02:48:55;;;;;;;3.15;2.47;;;;;;;;;;4940915;29;20537;-72
2022/06/01 02:51:22;;;;;;;2.80;2.60;;;;;;;;;;4941770;29;20376;-72
2022/06/01 02:53:48;;;;;;;3.83;2.53;;;;;;;;;;4940777;29;20055;-72
2022/06/01 02:56:15;;;;;;;4.50;2.40;;;;;;;;;;4940892;29;20083;-72
2022/06/01 02:58:41;;;;;;;5.07;2.30;;;;;;;;;;4940840;29;20051;-72
2022/06/01 03:01:07;;;;;;;3.10;2.45;;;;;;;;;;4940538;29;20383;-72
2022/06/01 03:03:34;;;;;;;2.85;2.28;;;;;;;;;;4940727;29;20087;-72
2022/06/01 03:06:00;;;;;;;4.65;2.63;;;;;;;;;;4941299;29;20051;-70
2022/06/01 03:08:27;;;;;;;7.63;2.80;;;;;;;;;;4940257;29;20126;-72
2022/06/01 03:10:54;;;;;;;4.72;2.80;;;;;;;;;;4940392;29;20570;-72
2022/06/01 03:13:22;;;;;;;3.05;2.75;;;;;;;;;;4940361;29;20070;-72
2022/06/01 03:15:49;;;;;;;3.10;2.75;;;;;;;;;;4940578;29;20083;-72
2022/06/01 03:18:15;;;;;;;3.92;2.78;;;;;;;;;;4940618;29;20047;-72
2022/06/01 03:20:42;;;;;;;5.45;2.85;;;;;;;;;;4940223;29;20513;-72
2022/06/01 03:23:08;;;;;;;5.85;3.00;;;;;;;;;;4940183;29;20119;-72
2022/06/01 03:25:37;;;;;;;3.45;2.53;;;;;;;;;;4940421;29;20044;-72
2022/06/01 03:28:03;;;;;;;3.45;2.83;;;;;;;;;;4940619;29;20052;-72
2022/06/01 03:30:30;;;;;;;4.15;2.70;;;;;;;;;;4940054;29;20039;-72
2022/06/01 03:32:57;;;;;;;4.20;2.92;;;;;;;;;;4940332;29;20102;-72
2022/06/01 03:35:27;;;;;;;7.13;2.80;;;;;;;;;;4939937;29;20062;-72
2022/06/01 03:37:53;;;;;;;4.03;2.90;;;;;;;;;;4939760;29;20106;-72
2022/06/01 03:40:21;;;;;;;3.22;2.92;;;;;;;;;;4940215;29;20074;-72
2022/06/01 03:42:47;;;;;;;4.72;2.83;;;;;;;;;;4935513;29;20055;-72
2022/06/01 03:47:59;;;;;;;6.95;3.10;;;;;;;;;;4936618;29;20042;-72
2022/06/01 03:50:26;;;;;;;3.85;2.47;;;;;;;;;;4939330;29;20043;-72
2022/06/01 03:52:53;;;;;;;3.55;2.83;;;;;;;;;;4939676;29;20040;-72
2022/06/01 03:55:20;;;;;;;3.55;2.42;;;;;;;;;;4937773;29;20106;-72
2022/06/01 03:57:47;;;;;;;2.65;2.42;;;;;;;;;;4939432;29;20039;-72
2022/06/01 04:00:17;;;;;;;6.63;2.88;;;;;;;;;;4939409;29;20135;-72
2022/06/01 04:02:43;;;;;;;3.13;2.83;;;;;;;;;;4937770;29;20094;-72
2022/06/01 04:05:10;;;;;;;3.15;2.67;;;;;;;;;;4938963;29;20048;-72
2022/06/01 04:07:36;;;;;;;4.40;2.88;;;;;;;;;;4938618;29;20066;-72
2022/06/01 04:10:03;;;;;;;5.03;2.90;;;;;;;;;;4939632;29;20130;-71
2022/06/01 04:12:29;;;;;;;4.28;3.15;;;;;;;;;;4938620;29;20515;-72
2022/06/01 04:14:56;;;;;;;4.22;2.88;;;;;;;;;;4939059;29;20047;-72
2022/06/01 04:17:22;;;;;;;5.53;3.33;;;;;;;;;;4938846;29;20044;-72
2022/06/01 04:19:48;;;;;;;3.38;2.90;;;;;;;;;;4938518;29;20126;-71
2022/06/01 04:22:15;;;;;;;5.15;2.88;;;;;;;;;;4938523;29;20147;-71
2022/06/01 04:24:41;;;;;;;3.88;2.78;;;;;;;;;;4938265;29;20411;-70
2022/06/01 04:27:08;;;;;;;4.30;2.70;;;;;;;;;;4937067;29;20084;-72
2022/06/01 04:29:34;;;;;;;4.32;2.58;;;;;;;;;;4935076;29;20094;-71
2022/06/01 04:32:09;;;;;;;4.53;2.22;;;;;;;;;;4923918;29;20040;-72
2022/06/01 04:37:16;;;;;;;4.30;2.67;;;;;;;;;;5397784;23;20457;-72
2022/06/01 04:39:42;;;;;;;4.05;2.53;;;;;;;;;;4939047;29;20047;-76
2022/06/01 04:42:08;;;;;;;4.03;2.70;;;;;;;;;;4939307;29;20036;-73
2022/06/01 04:44:35;;;;;;;3.58;2.50;;;;;;;;;;4939242;29;20046;-73
2022/06/01 04:47:01;;;;;;;6.53;2.53;;;;;;;;;;4939103;29;20054;-74
2022/06/01 04:49:27;;;;;;;4.50;2.60;;;;;;;;;;4938815;29;20047;-73
2022/06/01 04:51:53;;;;;;;5.93;2.40;;;;;;;;;;4938489;29;20039;-73
2022/06/01 04:54:19;;;;;;;5.35;2.92;;;;;;;;;;4939119;29;20075;-73
2022/06/01 04:56:45;;;;;;;5.15;2.60;;;;;;;;;;4938035;29;20108;-73
2022/06/01 04:59:11;;;;;;;3.42;2.47;;;;;;;;;;4938921;29;20099;-73
2022/06/01 05:01:37;;;;;;;3.75;2.38;;;;;;;;;;4938685;29;20066;-74
2022/06/01 05:04:04;;;;;;;3.50;2.38;;;;;;;;;;4938844;29;20047;-73
2022/06/01 05:06:30;;;;;;;2.88;2.28;;;;;;;;;;4938526;29;20131;-73
2022/06/01 05:08:56;;;;;;;9.55;3.00;;;;;;;;;;4939219;29;20043;-72
2022/06/01 05:11:22;;;;;;;2.67;2.47;;;;;;;;;;4938772;29;20071;-72
2022/06/01 05:13:48;;;;;;;3.50;2.63;;;;;;;;;;4930313;29;20048;-72
2022/06/01 05:16:15;;;;;;;4.60;2.72;;;;;;;;;;4927758;29;20043;-72
2022/06/01 05:18:41;;;;;;;4.93;2.50;;;;;;;;;;4929108;29;20047;-73
2022/06/01 05:21:07;;;;;;;2.90;2.10;;;;;;;;;;4927814;29;20044;-73
2022/06/01 05:23:33;;;;;;;3.28;1.90;;;;;;;;;;4927591;29;20134;-73
2022/06/01 05:25:59;;;;;;;5.47;1.90;;;;;;;;;;4929291;29;20056;-72
2022/06/01 05:28:27;;;;;;;2.30;2.00;;;;;;;;;;4928018;29;20044;-72
2022/06/01 05:31:01;;;;;;;3.75;1.88;;;;;;;;;;4919684;29;20364;-73
2022/06/01 05:33:27;;;;;;;2.13;1.80;;;;;;;;;;4919315;29;20051;-73
2022/06/01 05:35:53;;;;;;;4.60;2.10;;;;;;;;;;4919308;29;20052;-73
2022/06/01 05:38:20;;;;;;;6.32;2.28;;;;;;;;;;4919405;29;20091;-72
2022/06/01 05:40:46;;;;;;;4.88;1.83;;;;;;;;;;4918994;29;20127;-72
2022/06/01 05:43:13;;;;;;;4.07;1.88;;;;;;;;;;4919071;29;20052;-73
2022/06/01 05:45:40;;;;;;;3.58;1.70;;;;;;;;;;4919506;29;20040;-74
2022/06/01 05:48:07;;;;;;;6.50;1.70;;;;;;;;;;4919047;29;20488;-72
2022/06/01 05:50:33;;;;;;;4.75;1.80;;;;;;;;;;4918627;29;20048;-74
2022/06/01 05:53:00;;;;;;;5.00;1.98;;;;;;;;;;4918933;29;20476;-74
2022/06/01 05:55:26;;;;;;;2.95;1.70;;;;;;;;;;4918747;29;20095;-73
2022/06/01 05:57:52;;;;;;;3.10;1.70;;;;;;;;;;4918828;29;20583;-74
2022/06/01 06:00:19;;;;;;;2.05;1.55;;;;;;;;;;4902763;29;20500;-74
2022/06/01 06:02:45;;;;;;;1.55;1.45;;;;;;;;;;4918878;29;20044;-73
2022/06/01 06:07:57;;;;;;;4.55;1.60;;;;;;;;;;4918244;29;20083;-74
2022/06/01 06:10:24;;;;;;;2.42;1.55;;;;;;;;;;4926915;29;20044;-74
2022/06/01 06:12:50;;;;;;;4.45;1.90;;;;;;;;;;4924112;29;20102;-73
2022/06/01 06:15:17;;;;;;;3.05;1.60;;;;;;;;;;4930080;29;20043;-74
2022/06/01 06:17:43;;;;;;;4.22;1.60;;;;;;;;;;4927651;29;20103;-74
2022/06/01 06:20:10;;;;;;;8.60;1.80;;;;;;;;;;4918185;29;20044;-74
2022/06/01 06:22:36;;;;;;;6.10;1.70;;;;;;;;;;4929606;29;20044;-74
2022/06/01 06:25:02;;;;;;;5.95;1.88;;;;;;;;;;4918944;29;20062;-74
2022/06/01 06:27:29;;;;;;;3.25;1.80;;;;;;;;;;4928534;29;20039;-73
2022/06/01 06:29:55;;;;;;;3.60;1.63;;;;;;;;;;4937561;29;20474;-73
2022/06/01 06:32:21;;;;;;;2.85;1.60;;;;;;;;;;4937601;29;20036;-73
2022/06/01 06:34:47;;;;;;;7.15;1.95;;;;;;;;;;4936800;29;20043;-75
2022/06/01 06:37:13;;;;;;;4.07;1.83;;;;;;;;;;4937305;29;20060;-74
2022/06/01 06:39:40;;;;;;;5.53;1.73;;;;;;;;;;4933277;29;20103;-74
2022/06/01 06:42:06;;;;;;;9.02;1.80;;;;;;;;;;4918505;29;20044;-74
2022/06/01 06:44:33;;;;;;;5.28;1.88;;;;;;;;;;4923319;29;20048;-73
2022/06/01 06:46:59;;;;;;;9.13;2.38;;;;;;;;;;4924363;29;20048;-74
2022/06/01 06:49:26;;;;;;;5.30;1.90;;;;;;;;;;4912953;29;20036;-72
2022/06/01 06:51:52;;;;;;;6.15;1.77;;;;;;;;;;4921868;29;20043;-73
2022/06/01 06:54:18;;;;;;;4.95;2.40;;;;;;;;;;4936881;29;20178;-73
2022/06/01 06:56:44;;;;;;;8.60;1.90;;;;;;;;;;4927301;29;20055;-74
2022/06/01 06:59:12;;;;;;;4.95;2.03;;;;;;;;;;4934533;29;20044;-73
2022/06/01 07:01:38;;;;;;;10.43;2.05;;;;;;;;;;4918027;29;20099;-73
2022/06/01 07:04:05;;;;;;;4.88;1.77;;;;;;;;;;4918218;29;20050;-73
2022/06/01 07:06:31;;;;;;;2.70;1.42;;;;;;;;;;4918279;29;20051;-73
2022/06/01 07:08:57;;;;;;;2.88;1.80;;;;;;;;;;4918977;29;20044;-73
2022/06/01 07:11:25;;;;;;;5.32;1.90;;;;;;;;;;4917878;29;20127;-73
2022/06/01 07:13:51;;;;;;;2.58;1.60;;;;;;;;;;4928520;29;20048;-72
2022/06/01 07:16:22;;;;;;;2.92;1.70;;;;;;;;;;4936491;29;20051;-73
2022/06/01 07:18:49;;;;;;;2.90;1.85;;;;;;;;;;4928734;29;20040;-71
2022/06/01 07:21:16;;;;;;;3.33;1.50;;;;;;;;;;4931626;29;20525;-73
2022/06/01 07:23:43;;;;;;;4.07;1.92;;;;;;;;;;4934920;29;20047;-73
2022/06/01 07:26:11;;;;;;;1.92;1.40;;;;;;;;;;4937105;29;20055;-73
2022/06/01 07:28:37;;;;;;;4.57;1.65;;;;;;;;;;4937290;29;20047;-72
2022/06/01 07:31:04;;;;;;;2.03;1.77;;;;;;;;;;4940861;29;20043;-73
2022/06/01 07:33:30;;;;;;;4.53;1.65;;;;;;;;;;4940352;29;20051;-72
2022/06/01 07:36:00;;;;;;;4.35;1.98;;;;;;;;;;4940358;29;20127;-73
2022/06/01 07:43:58;;;;;;;6.05;1.55;;;;;;;;;;4940422;29;20070;-72
2022/06/01 07:46:24;;;;;;;4.30;1.70;;;;;;;;;;4940788;29;20048;-72
2022/06/01 07:48:52;;;;;;;3.05;1.85;;;;;;;;;;4940004;29;20402;-72
2022/06/01 07:51:20;;;;;;;3.55;1.60;;;;;;;;;;4939722;29;20048;-72
2022/06/01 07:53:46;;;;;;;2.25;1.50;;;;;;;;;;4940468;29;20134;-72
2022/06/01 07:56:12;;;;;;;2.40;1.70;;;;;;;;;;4940236;29;20511;-72
2022/06/01 07:58:38;;;;;;;6.50;1.65;;;;;;;;;;4939864;29;20083;-72
2022/06/01 08:01:05;;;;;;;3.10;1.77;;;;;;;;;;4922667;29;20395;-72
2022/06/01 08:03:31;;;;;;;4.70;1.60;;;;;;;;;;4939701;29;20039;-72
2022/06/01 08:05:57;;;;;;;3.75;1.73;;;;;;;;;;4939871;29;20059;-72
2022/06/01 08:08:23;;;;;;;2.30;1.35;;;;;;;;;;4939639;29;20039;-72
2022/06/01 08:10:49;;;;;;;3.78;1.60;;;;;;;;;;4939896;29;20070;-72
2022/06/01 08:13:16;;;;;;;6.35;1.70;;;;;;;;;;4939591;29;20044;-72
2022/06/01 08:15:44;;;;;;;4.20;1.88;;;;;;;;;;4939880;29;20082;-72
2022/06/01 08:18:11;;;;;;;4.50;1.48;;;;;;;;;;4939225;29;20398;-72
2022/06/01 08:20:37;;;;;;;2.17;1.30;;;;;;;;;;4939208;29;20047;-72
2022/06/01 08:23:04;;;;;;;4.78;2.17;;;;;;;;;;4939223;29;20035;-72
2022/06/01 08:25:30;;;;;;;4.70;1.50;;;;;;;;;;4939664;29;20046;-72
2022/06/01 08:27:56;;;;;;;4.00;1.58;;;;;;;;;;4939267;29;20039;-72
2022/06/01 08:30:24;;;;;;;5.43;1.58;;;;;;;;;;4939849;29;20047;-72
2022/06/01 08:32:51;;;;;;;2.30;1.42;;;;;;;;;;4939143;29;20035;-73
2022/06/01 08:35:18;;;;;;;5.15;1.38;;;;;;;;;;4939215;29;20086;-72
2022/06/01 08:37:46;;;;;;;3.08;1.52;;;;;;;;;;4939580;29;20063;-72
2022/06/01 08:40:13;;;;;;;6.53;1.70;;;;;;;;;;4938981;29;20050;-72
2022/06/01 08:42:43;;;;;;;5.10;1.85;;;;;;;;;;4938935;29;20054;-72
2022/06/01 08:45:09;;;;;;;;;;;;;;;;;;4940389;29;20047;-72
2022/06/01 08:47:39;;;;;;;4.72;1.50;;;;;;;;;;4939308;29;20025;-72
2022/06/01 08:50:25;;;;;;;4.55;1.70;;;;;;;;;;4939146;29;20036;-72
2022/06/01 08:52:53;;;;;;;3.25;1.58;;;;;;;;;;4925746;29;20078;-72
2022/06/01 08:55:19;;;;;;;4.93;1.52;;;;;;;;;;4939123;29;20070;-72
2022/06/01 08:57:51;;;;;;;5.10;1.70;;;;;;;;;;4938945;29;20562;-72
2022/06/01 09:00:19;;;;;;;5.30;1.85;;;;;;;;;;4939271;29;20039;-72
2022/06/01 09:02:45;;;;;;;4.68;1.52;;;;;;;;;;4939020;29;20059;-72
2022/06/01 09:05:30;;;;;;;7.75;2.08;;;;;;;;;;4938930;29;20052;-72
2022/06/01 09:07:59;;;;;;;4.45;1.88;;;;;;;;;;4938584;29;20074;-72
2022/06/01 09:10:29;;;;;;;5.10;1.63;;;;;;;;;;4939280;29;20039;-72
2022/06/01 09:13:03;;;;;;;3.67;1.63;;;;;;;;;;4938869;29;20047;-72
2022/06/01 09:15:33;;;;;;;5.35;1.77;;;;;;;;;;4938476;29;20079;-72
2022/06/01 09:18:01;;;;;;;7.47;1.80;;;;;;;;;;4938765;29;20078;-72
2022/06/01 09:23:14;;;;;;;8.50;1.80;;;;;;;;;;4938058;29;20046;-72
2022/06/01 09:25:50;;;;;;;5.03;1.52;;;;;;;;;;4938828;29;20052;-72
2022/06/01 09:28:20;;;;;;;5.95;2.03;;;;;;;;;;4921193;29;20036;-72
2022/06/01 09:30:46;;;;;;;;;;;;;;;;;;4919365;29;20040;-71
2022/06/01 09:33:22;;;;;;;8.77;1.95;;;;;;;;;;4920098;29;19919;-71
2022/06/01 09:36:15;;;;;;;6.30;1.73;;;;;;;;;;4929242;29;20096;-71
2022/06/01 09:38:47;;;;;;;8.18;1.90;;;;;;;;;;4919766;29;20059;-72
2022/06/01 09:41:24;;;;;;;5.07;1.90;;;;;;;;;;4920114;29;20078;-71
2022/06/01 09:44:01;;;;;;;5.18;2.03;;;;;;;;;;4929340;29;20079;-71
2022/06/01 09:46:36;;;;;;;5.38;1.90;;;;;;;;;;4919179;29;20052;-72
2022/06/01 09:49:09;;;;;;;9.43;2.13;;;;;;;;;;4922577;29;20526;-73
2022/06/01 09:51:38;;;;;;;8.02;2.05;;;;;;;;;;4931219;29;20372;-73
2022/06/01 09:54:13;;;;;;;7.35;2.00;;;;;;;;;;4938048;29;20039;-73
2022/06/01 09:56:44;;;;;;;7.40;2.80;;;;;;;;;;4937965;29;20523;-73
2022/06/01 10:07:46;;;;;;;7.38;2.53;;;;;;;;;;4937171;29;20159;-73
2022/06/01 10:10:22;;;;;;;6.38;2.40;;;;;;;;;;4937651;29;20189;-73
2022/06/01 10:12:52;;;;;;;5.50;2.30;;;;;;;;;;4922058;29;20056;-73
2022/06/01 10:15:24;;;;;;;7.95;2.35;;;;;;;;;;4918843;29;20040;-73
2022/06/01 10:17:53;;;;;;;8.73;2.67;;;;;;;;;;4918670;29;20081;-73
2022/06/01 10:20:23;;;;;;;7.63;2.33;;;;;;;;;;4918486;29;20407;-73
2022/06/01 10:23:01;;;;;;;8.85;2.50;;;;;;;;;;4919397;29;20138;-74
2022/06/01 10:25:42;;;;;;;7.25;2.50;;;;;;;;;;4926329;29;20518;-73
2022/06/01 10:28:15;;;;;;;5.47;2.30;;;;;;;;;;4935774;29;20066;-73
2022/06/01 10:30:49;;;;;;;10.10;2.42;;;;;;;;;;4932977;29;20051;-73
2022/06/01 10:33:28;;;;;;;4.57;2.70;;;;;;;;;;4927099;29;20048;-73
2022/06/01 10:36:07;;;;;;;9.35;2.47;;;;;;;;;;4901170;29;20529;-73
2022/06/01 10:38:41;;;;;;;9.30;2.50;;;;;;;;;;4911992;29;20135;-73
2022/06/01 10:41:10;;;;;;;5.68;2.28;;;;;;;;;;4917505;29;20048;-73
2022/06/01 10:44:12;;;;;;;6.55;2.58;;;;;;;;;;4913680;29;20108;-73
2022/06/01 10:46:53;;;;;;;7.93;2.53;;;;;;;;;;4865992;29;20057;-72
2022/06/01 10:49:20;;;;;;;8.63;2.80;;;;;;;;;;4913782;29;20044;-72
2022/06/01 10:51:57;;;;;;;10.23;2.85;;;;;;;;;;4918232;29;20051;-73
2022/06/01 10:54:43;;;;;;;6.85;2.13;;;;;;;;;;4917329;29;20056;-73
2022/06/01 10:57:10;;;;;;;10.10;3.10;;;;;;;;;;4917517;29;20044;-73
2022/06/01 10:59:36;;;;;;;8.45;2.08;;;;;;;;;;4917256;29;20044;-75
2022/06/01 11:02:21;;;;;;;7.00;2.80;;;;;;;;;;4917453;29;20052;-71
2022/06/01 11:04:53;;;;;;;9.65;2.40;;;;;;;;;;4901345;29;20126;-75
2022/06/01 11:07:37;;;;;;;7.50;2.25;;;;;;;;;;4920971;29;20122;-74
2022/06/01 11:10:18;;;;;;;9.70;2.50;;;;;;;;;;4922317;29;20084;-74
2022/06/01 11:12:55;;;;;;;12.73;2.80;;;;;;;;;;4921895;29;20047;-74
2022/06/01 11:15:40;;;;;;;13.95;3.45;;;;;;;;;;4922198;29;20052;-74
2022/06/01 11:18:06;;;;;;;7.30;2.72;;;;;;;;;;4921963;29;20044;-74
2022/06/01 11:20:38;;;;;;;8.93;2.40;;;;;;;;;;4921537;29;20047;-74
2022/06/01 11:23:13;;;;;;;8.75;2.60;;;;;;;;;;4921061;29;20052;-74
2022/06/01 11:25:58;;;;;;;9.85;2.80;;;;;;;;;;4917062;29;20550;-74
2022/06/01 11:28:40;;;;;;;8.13;2.58;;;;;;;;;;4920381;29;20040;-74
2022/06/01 11:31:19;;;;;;;7.10;2.15;;;;;;;;;;4919949;29;20047;-75
2022/06/01 11:33:50;;;;;;;8.63;2.35;;;;;;;;;;4921338;29;20099;-74
2022/06/01 11:36:19;;;;;;;7.15;2.28;;;;;;;;;;4923421;29;20127;-74
2022/06/01 11:38:53;;;;;;;7.43;2.88;;;;;;;;;;4932651;29;20044;-74
2022/06/01 11:41:39;;;;;;;9.85;2.75;;;;;;;;;;4935084;29;20075;-75
2022/06/01 11:44:08;;;;;;;6.63;2.28;;;;;;;;;;4932447;29;20075;-75
2022/06/01 11:46:35;;;;;;;7.43;2.15;;;;;;;;;;4939147;29;20115;-74
2022/06/01 11:49:12;;;;;;;6.60;2.47;;;;;;;;;;4940000;29;20047;-74
2022/06/01 11:51:38;;;;;;;13.70;2.78;;;;;;;;;;4938949;29;20067;-74
2022/06/01 11:54:08;;;;;;;6.80;2.33;;;;;;;;;;4939566;29;20384;-75
2022/06/01 11:56:43;;;;;;;8.82;3.50;;;;;;;;;;4938944;29;20078;-76
2022/06/01 11:59:28;;;;;;;4.85;2.33;;;;;;;;;;4923535;29;20048;-73
2022/06/01 12:01:58;;;;;;;6.63;2.55;;;;;;;;;;4920535;29;20044;-76
2022/06/01 12:04:50;;;;;;;8.95;2.90;;;;;;;;;;4935921;29;20130;-76
2022/06/01 12:07:32;;;;;;;7.68;2.38;;;;;;;;;;4925060;29;20040;-76
2022/06/01 12:09:58;;;;;;;6.75;2.50;;;;;;;;;;4924494;29;20103;-76
2022/06/01 12:12:27;;;;;;;6.53;2.30;;;;;;;;;;4923317;29;20032;-76
2022/06/01 12:15:04;;;;;;;10.73;2.72;;;;;;;;;;4931641;29;20550;-76
2022/06/01 12:17:32;;;;;;;8.98;3.00;;;;;;;;;;4922674;29;20119;-77
2022/06/01 12:20:17;;;;;;;10.73;2.65;;;;;;;;;;4928826;29;20514;-76
2022/06/01 12:28:45;;;;;;;7.30;2.33;;;;;;;;;;4897945;29;20065;-77
2022/06/01 12:31:19;;;;;;;7.45;2.30;;;;;;;;;;4922075;29;20036;-76
2022/06/01 12:34:00;;;;;;;6.20;2.15;;;;;;;;;;4924355;29;20487;-77
2022/06/01 12:36:28;;;;;;;5.50;2.00;;;;;;;;;;4938453;29;20060;-76
2022/06/01 12:38:54;;;;;;;5.68;2.50;;;;;;;;;;4933486;29;20083;-77
2022/06/01 12:41:25;;;;;;;6.32;2.58;;;;;;;;;;4910977;29;20130;-77
2022/06/01 12:43:56;;;;;;;6.75;2.15;;;;;;;;;;4930939;29;20055;-76
2022/06/01 12:46:31;;;;;;;8.48;2.30;;;;;;;;;;4920047;29;20060;-76
2022/06/01 12:49:16;;;;;;;6.03;2.20;;;;;;;;;;4903120;29;20044;-75
2022/06/01 12:51:43;;;;;;;4.72;2.25;;;;;;;;;;4919505;29;20123;-75
2022/06/01 12:54:09;;;;;;;5.25;2.13;;;;;;;;;;4920105;29;20040;-77
2022/06/01 12:56:37;;;;;;;9.23;2.30;;;;;;;;;;4926841;29;20083;-76
2022/06/01 12:59:13;;;;;;;6.20;2.38;;;;;;;;;;4937353;29;20058;-77
2022/06/01 13:01:39;;;;;;;9.10;2.78;;;;;;;;;;4919971;29;20047;-76
2022/06/01 13:04:06;;;;;;;5.75;2.70;;;;;;;;;;4931991;29;20059;-76
2022/06/01 13:06:33;;;;;;;6.78;2.03;;;;;;;;;;4937826;29;20414;-76
2022/06/01 13:09:01;;;;;;;6.95;2.55;;;;;;;;;;4920354;29;20206;-77
2022/06/01 13:11:31;;;;;;;6.20;2.47;;;;;;;;;;4908119;29;20487;-77
2022/06/01 13:13:58;;;;;;;7.38;2.67;;;;;;;;;;4919710;29;20040;-76
2022/06/01 13:16:32;;;;;;;9.05;2.60;;;;;;;;;;4934920;29;20047;-77
2022/06/01 13:18:58;;;;;;;4.80;2.45;;;;;;;;;;4937391;29;20044;-77
2022/06/01 13:21:27;;;;;;;8.13;2.75;;;;;;;;;;4929133;29;20075;-77
2022/06/01 13:23:55;;;;;;;6.57;2.15;;;;;;;;;;4927763;29;20082;-78
2022/06/01 13:26:27;;;;;;;10.15;2.92;;;;;;;;;;4926221;29;20039;-78
2022/06/01 13:28:53;;;;;;;11.32;3.33;;;;;;;;;;4934512;29;20056;-78
2022/06/01 13:31:23;;;;;;;8.25;2.65;;;;;;;;;;4919106;29;20040;-78
2022/06/01 13:33:49;;;;;;;6.03;2.55;;;;;;;;;;4918940;29;20052;-75
2022/06/01 13:36:32;;;;;;;9.30;2.40;;;;;;;;;;4919183;29;20044;-75
2022/06/01 13:39:09;;;;;;;5.43;2.55;;;;;;;;;;4933457;29;20043;-74
2022/06/01 13:41:38;;;;;;;7.07;2.47;;;;;;;;;;4925019;29;20078;-74
2022/06/01 13:44:13;;;;;;;8.02;2.88;;;;;;;;;;4929907;29;20051;-75
2022/06/01 13:46:39;;;;;;;9.55;2.67;;;;;;;;;;4930153;29;20051;-74
2022/06/01 13:49:08;;;;;;;10.15;2.75;;;;;;;;;;4935298;29;20120;-76
2022/06/01 13:51:43;;;;;;;6.43;2.50;;;;;;;;;;4925181;29;20075;-75
2022/06/01 13:54:29;;;;;;;4.60;2.30;;;;;;;;;;4930536;29;20054;-75
2022/06/01 13:57:14;;;;;;;9.93;2.80;;;;;;;;;;4934782;29;20130;-75
2022/06/01 13:59:51;;;;;;;9.32;2.83;;;;;;;;;;4937806;29;20035;-76
2022/06/01 14:02:22;;;;;;;12.63;2.70;;;;;;;;;;4927741;29;20119;-77
2022/06/01 14:04:50;;;;;;;6.05;2.42;;;;;;;;;;4923744;29;20060;-79
2022/06/01 14:07:20;;;;;;;6.20;2.45;;;;;;;;;;4934534;29;20044;-77
2022/06/01 14:09:49;;;;;;;6.33;1.97;;;;;;;;;;4927994;29;20597;-75
2022/06/01 14:12:15;;;;;;;7.13;2.60;;;;;;;;;;4931664;29;20110;-76
2022/06/01 14:14:44;;;;;;;7.22;2.50;;;;;;;;;;4918611;29;20808;-76
2022/06/01 14:17:12;;;;;;;5.22;2.55;;;;;;;;;;4918818;29;20044;-76
2022/06/01 14:19:39;;;;;;;8.82;2.42;;;;;;;;;;4936441;29;20038;-75
2022/06/01 14:22:06;;;;;;;6.05;2.45;;;;;;;;;;4935971;29;20036;-74
2022/06/01 14:30:03;;;;;;;6.80;2.60;;;;;;;;;;4932324;29;20042;-73
2022/06/01 14:32:30;;;;;;;9.55;2.30;;;;;;;;;;4936755;29;20044;-74
2022/06/01 14:34:56;;;;;;;10.57;2.47;;;;;;;;;;4937427;29;20050;-74
2022/06/01 14:37:23;;;;;;;5.80;2.45;;;;;;;;;;4936724;29;20519;-75
2022/06/01 14:39:49;;;;;;;8.90;2.65;;;;;;;;;;4919620;29;20031;-74
2022/06/01 14:42:16;;;;;;;6.55;2.20;;;;;;;;;;4937417;29;20047;-75
2022/06/01 14:44:42;;;;;;;8.68;2.40;;;;;;;;;;4937425;29;20435;-76
2022/06/01 14:47:08;;;;;;;7.82;2.35;;;;;;;;;;4920500;29;20056;-75
2022/06/01 14:49:34;;;;;;;7.03;2.50;;;;;;;;;;4918262;29;20036;-76
2022/06/01 14:52:05;;;;;;;8.45;2.63;;;;;;;;;;4917820;29;20047;-75
2022/06/01 14:54:34;;;;;;;7.80;2.53;;;;;;;;;;4918434;29;20054;-75
2022/06/01 14:57:02;;;;;;;11.45;2.90;;;;;;;;;;4918088;29;20048;-74
2022/06/01 14:59:31;;;;;;;4.65;2.15;;;;;;;;;;4918165;29;20087;-73
2022/06/01 15:01:58;;;;;;;7.40;2.78;;;;;;;;;;4901112;29;20131;-75
2022/06/01 15:04:28;;;;;;;6.07;2.38;;;;;;;;;;4918042;29;20124;-76
2022/06/01 15:06:55;;;;;;;10.20;2.50;;;;;;;;;;4901476;29;20056;-76
2022/06/01 15:09:21;;;;;;;9.98;2.47;;;;;;;;;;4918168;29;20039;-74
2022/06/01 15:11:47;;;;;;;7.18;2.17;;;;;;;;;;4917665;29;20119;-73
2022/06/01 15:14:13;;;;;;;6.10;1.90;;;;;;;;;;4916052;29;20134;-72
2022/06/01 15:16:40;;;;;;;7.57;2.22;;;;;;;;;;4916836;29;20048;-74
2022/06/01 15:19:07;;;;;;;8.35;2.55;;;;;;;;;;4934655;29;20407;-72
2022/06/01 15:21:33;;;;;;;5.75;2.85;;;;;;;;;;4936300;29;20119;-73
2022/06/01 15:24:00;;;;;;;7.38;2.17;;;;;;;;;;4935831;29;20043;-73
2022/06/01 15:26:26;;;;;;;7.93;2.95;;;;;;;;;;4937026;29;20122;-73
2022/06/01 15:28:52;;;;;;;4.70;2.20;;;;;;;;;;4937030;29;20046;-73
2022/06/01 15:39:34;;;;;;;4.93;2.20;;;;;;;;;;4936466;29;20046;-73
2022/06/01 15:42:02;;;;;;;6.10;2.10;;;;;;;;;;4936890;29;20043;-73
2022/06/01 15:44:29;;;;;;;5.38;2.75;;;;;;;;;;4937442;29;20039;-73
2022/06/01 15:46:55;;;;;;;9.70;2.60;;;;;;;;;;4937002;29;20063;-73